sensor_id;sensor_type;location;lat;lon;timestamp;temperature;humidity
17215;DHT22;8723;51.502;6.918;2023-07-31T00:00:36;16.00;99.90
17215;DHT22;8723;51.502;6.918;2023-07-31T00:03:03;16.10;99.90
17215;DHT22;8723;51.502;6.918;2023-07-31T00:05:30;16.10;99.90
17215;DHT22;8723;51.502;6.918;2023-07-31T00:07:57;16.20;99.90
17215;DHT22;8723;51.502;6.918;2023-07-31T00:10:26;16.20;99.90
17215;DHT22;8723;51.502;6.918;2023-07-31T00:12:53;16.10;99.90
17215;DHT22;8723;51.502;6.918;2023-07-31T00:15:20;16.10;99.90
17215;DHT22;8723;51.502;6.918;2023-07-31T00:17:46;16.10;99.90
17215;DHT22;8723;51.502;6.918;2023-07-31T00:20:13;16.10;99.90
17215;DHT22;8723;51.502;6.918;2023-07-31T00:25:13;16.10;99.90
17215;DHT22;8723;51.502;6.918;2023-07-31T00:27:42;16.20;99.90
17215;DHT22;8723;51.502;6.918;2023-07-31T00:30:12;16.10;99.90
17215;DHT22;8723;51.502;6.918;2023-07-31T00:32:39;16.10;99.90
17215;DHT22;8723;51.502;6.918;2023-07-31T00:43:28;16.10;99.90
17215;DHT22;8723;51.502;6.918;2023-07-31T00:45:56;16.10;99.90
17215;DHT22;8723;51.502;6.918;2023-07-31T00:48:23;16.10;99.90
17215;DHT22;8723;51.502;6.918;2023-07-31T00:50:50;16.10;99.90
17215;DHT22;8723;51.502;6.918;2023-07-31T00:53:17;16.10;99.90
17215;DHT22;8723;51.502;6.918;2023-07-31T00:55:44;16.10;99.90
17215;DHT22;8723;51.502;6.918;2023-07-31T00:58:11;16.10;99.90
17215;DHT22;8723;51.502;6.918;2023-07-31T01:00:39;16.10;99.90
17215;DHT22;8723;51.502;6.918;2023-07-31T01:03:06;16.10;99.90
17215;DHT22;8723;51.502;6.918;2023-07-31T01:05:38;16.10;99.90
17215;DHT22;8723;51.502;6.918;2023-07-31T01:08:12;16.10;99.90
17215;DHT22;8723;51.502;6.918;2023-07-31T01:10:50;16.10;99.90
17215;DHT22;8723;51.502;6.918;2023-07-31T01:13:18;16.10;99.90
17215;DHT22;8723;51.502;6.918;2023-07-31T01:15:47;16.20;99.90
17215;DHT22;8723;51.502;6.918;2023-07-31T01:18:13;16.10;99.90
17215;DHT22;8723;51.502;6.918;2023-07-31T01:20:42;16.10;99.90
17215;DHT22;8723;51.502;6.918;2023-07-31T01:23:35;16.10;99.90
17215;DHT22;8723;51.502;6.918;2023-07-31T01:26:11;16.10;99.90
17215;DHT22;8723;51.502;6.918;2023-07-31T01:28:49;16.10;99.90
17215;DHT22;8723;51.502;6.918;2023-07-31T01:31:21;16.10;99.90
17215;DHT22;8723;51.502;6.918;2023-07-31T01:33:50;16.10;99.90
17215;DHT22;8723;51.502;6.918;2023-07-31T01:36:18;16.10;99.90
17215;DHT22;8723;51.502;6.918;2023-07-31T01:38:44;16.10;99.90
17215;DHT22;8723;51.502;6.918;2023-07-31T01:41:16;16.10;99.90
17215;DHT22;8723;51.502;6.918;2023-07-31T01:43:46;16.10;99.90
17215;DHT22;8723;51.502;6.918;2023-07-31T01:46:16;16.10;99.90
17215;DHT22;8723;51.502;6.918;2023-07-31T01:48:44;16.10;99.90
17215;DHT22;8723;51.502;6.918;2023-07-31T01:51:13;16.10;99.90
17215;DHT22;8723;51.502;6.918;2023-07-31T01:56:10;16.10;99.90
17215;DHT22;8723;51.502;6.918;2023-07-31T01:58:42;16.10;99.90
17215;DHT22;8723;51.502;6.918;2023-07-31T02:01:12;16.10;99.90
17215;DHT22;8723;51.502;6.918;2023-07-31T02:03:41;16.10;99.90
17215;DHT22;8723;51.502;6.918;2023-07-31T02:06:11;16.10;99.90
17215;DHT22;8723;51.502;6.918;2023-07-31T02:08:40;16.10;99.90
17215;DHT22;8723;51.502;6.918;2023-07-31T02:11:07;16.10;99.90
17215;DHT22;8723;51.502;6.918;2023-07-31T02:13:35;16.10;99.90
17215;DHT22;8723;51.502;6.918;2023-07-31T02:16:07;16.10;99.90
17215;DHT22;8723;51.502;6.918;2023-07-31T02:18:36;16.10;99.90
17215;DHT22;8723;51.502;6.918;2023-07-31T02:21:06;16.10;99.90
17215;DHT22;8723;51.502;6.918;2023-07-31T02:23:34;16.10;99.90
17215;DHT22;8723;51.502;6.918;2023-07-31T02:26:01;16.20;99.90
17215;DHT22;8723;51.502;6.918;2023-07-31T02:28:30;16.10;99.90
17215;DHT22;8723;51.502;6.918;2023-07-31T02:30:58;16.20;99.90
17215;DHT22;8723;51.502;6.918;2023-07-31T02:33:29;16.20;99.90
17215;DHT22;8723;51.502;6.918;2023-07-31T02:35:57;16.20;99.90
17215;DHT22;8723;51.502;6.918;2023-07-31T02:38:24;16.20;99.90
17215;DHT22;8723;51.502;6.918;2023-07-31T02:40:51;16.20;99.90
17215;DHT22;8723;51.502;6.918;2023-07-31T02:43:18;16.20;99.90
17215;DHT22;8723;51.502;6.918;2023-07-31T02:45:44;16.20;99.90
17215;DHT22;8723;51.502;6.918;2023-07-31T02:48:11;16.20;99.90
17215;DHT22;8723;51.502;6.918;2023-07-31T02:50:39;16.20;99.90
17215;DHT22;8723;51.502;6.918;2023-07-31T02:53:06;16.20;99.90
17215;DHT22;8723;51.502;6.918;2023-07-31T02:55:33;16.20;99.90
17215;DHT22;8723;51.502;6.918;2023-07-31T02:58:00;16.20;99.90
17215;DHT22;8723;51.502;6.918;2023-07-31T03:00:28;16.20;99.90
17215;DHT22;8723;51.502;6.918;2023-07-31T03:02:56;16.20;99.90
17215;DHT22;8723;51.502;6.918;2023-07-31T03:05:26;16.20;99.90
17215;DHT22;8723;51.502;6.918;2023-07-31T03:07:57;16.20;99.90
17215;DHT22;8723;51.502;6.918;2023-07-31T03:10:26;16.30;99.90
17215;DHT22;8723;51.502;6.918;2023-07-31T03:12:55;16.20;99.90
17215;DHT22;8723;51.502;6.918;2023-07-31T03:15:23;16.30;99.90
17215;DHT22;8723;51.502;6.918;2023-07-31T03:17:49;16.30;99.90
17215;DHT22;8723;51.502;6.918;2023-07-31T03:20:17;16.30;99.90
17215;DHT22;8723;51.502;6.918;2023-07-31T03:22:43;16.30;99.90
17215;DHT22;8723;51.502;6.918;2023-07-31T03:25:12;16.30;99.90
17215;DHT22;8723;51.502;6.918;2023-07-31T03:27:39;16.30;99.90
17215;DHT22;8723;51.502;6.918;2023-07-31T03:30:07;16.30;99.90
17215;DHT22;8723;51.502;6.918;2023-07-31T03:32:34;16.30;99.90
17215;DHT22;8723;51.502;6.918;2023-07-31T03:35:01;16.40;99.90
17215;DHT22;8723;51.502;6.918;2023-07-31T03:37:28;16.40;99.90
17215;DHT22;8723;51.502;6.918;2023-07-31T03:39:54;16.40;99.90
17215;DHT22;8723;51.502;6.918;2023-07-31T03:42:23;16.40;99.90
17215;DHT22;8723;51.502;6.918;2023-07-31T03:44:49;16.40;99.90
17215;DHT22;8723;51.502;6.918;2023-07-31T03:47:16;16.40;99.90
17215;DHT22;8723;51.502;6.918;2023-07-31T03:49:43;16.40;99.90
17215;DHT22;8723;51.502;6.918;2023-07-31T03:52:10;16.40;99.90
17215;DHT22;8723;51.502;6.918;2023-07-31T03:54:37;16.40;99.90
17215;DHT22;8723;51.502;6.918;2023-07-31T03:57:04;16.40;99.90
17215;DHT22;8723;51.502;6.918;2023-07-31T03:59:33;16.50;99.90
17215;DHT22;8723;51.502;6.918;2023-07-31T04:01:59;16.50;99.90
17215;DHT22;8723;51.502;6.918;2023-07-31T04:04:26;16.50;99.90
17215;DHT22;8723;51.502;6.918;2023-07-31T04:06:53;16.50;99.90
17215;DHT22;8723;51.502;6.918;2023-07-31T04:09:20;16.50;99.90
17215;DHT22;8723;51.502;6.918;2023-07-31T04:11:47;16.50;99.90
17215;DHT22;8723;51.502;6.918;2023-07-31T04:14:13;16.60;99.90
17215;DHT22;8723;51.502;6.918;2023-07-31T04:16:42;16.60;99.90
17215;DHT22;8723;51.502;6.918;2023-07-31T04:19:09;16.60;99.90
17215;DHT22;8723;51.502;6.918;2023-07-31T04:21:36;16.60;99.90
17215;DHT22;8723;51.502;6.918;2023-07-31T04:24:03;16.60;99.90
17215;DHT22;8723;51.502;6.918;2023-07-31T04:26:30;16.60;99.90
17215;DHT22;8723;51.502;6.918;2023-07-31T04:28:57;16.70;99.90
17215;DHT22;8723;51.502;6.918;2023-07-31T04:31:24;16.70;99.90
17215;DHT22;8723;51.502;6.918;2023-07-31T04:33:52;16.70;99.90
17215;DHT22;8723;51.502;6.918;2023-07-31T04:36:19;16.70;99.90
17215;DHT22;8723;51.502;6.918;2023-07-31T04:38:45;16.70;99.90
17215;DHT22;8723;51.502;6.918;2023-07-31T04:41:12;16.70;99.90
17215;DHT22;8723;51.502;6.918;2023-07-31T04:43:39;16.70;99.90
17215;DHT22;8723;51.502;6.918;2023-07-31T04:46:06;16.80;99.90
17215;DHT22;8723;51.502;6.918;2023-07-31T04:48:33;16.70;99.90
17215;DHT22;8723;51.502;6.918;2023-07-31T04:51:01;16.70;99.90
17215;DHT22;8723;51.502;6.918;2023-07-31T04:53:28;16.70;99.90
17215;DHT22;8723;51.502;6.918;2023-07-31T04:55:54;16.70;99.90
17215;DHT22;8723;51.502;6.918;2023-07-31T04:58:21;16.80;99.90
17215;DHT22;8723;51.502;6.918;2023-07-31T05:00:48;16.80;99.90
17215;DHT22;8723;51.502;6.918;2023-07-31T05:03:15;16.80;99.90
17215;DHT22;8723;51.502;6.918;2023-07-31T05:05:41;16.80;99.90
17215;DHT22;8723;51.502;6.918;2023-07-31T05:08:09;16.80;99.90
17215;DHT22;8723;51.502;6.918;2023-07-31T05:10:36;16.90;99.90
17215;DHT22;8723;51.502;6.918;2023-07-31T05:13:03;16.80;99.90
17215;DHT22;8723;51.502;6.918;2023-07-31T05:15:30;16.90;99.90
17215;DHT22;8723;51.502;6.918;2023-07-31T05:17:57;16.90;99.90
17215;DHT22;8723;51.502;6.918;2023-07-31T05:20:24;16.90;99.90
17215;DHT22;8723;51.502;6.918;2023-07-31T05:22:51;16.80;99.90
17215;DHT22;8723;51.502;6.918;2023-07-31T05:25:19;16.80;99.90
17215;DHT22;8723;51.502;6.918;2023-07-31T05:27:46;16.80;99.90
17215;DHT22;8723;51.502;6.918;2023-07-31T05:30:12;16.80;99.90
17215;DHT22;8723;51.502;6.918;2023-07-31T05:32:39;16.80;99.90
17215;DHT22;8723;51.502;6.918;2023-07-31T05:35:06;16.80;99.90
17215;DHT22;8723;51.502;6.918;2023-07-31T05:37:33;16.90;99.90
17215;DHT22;8723;51.502;6.918;2023-07-31T05:40:00;16.80;99.90
17215;DHT22;8723;51.502;6.918;2023-07-31T05:42:28;16.80;99.90
17215;DHT22;8723;51.502;6.918;2023-07-31T05:44:55;16.80;99.90
17215;DHT22;8723;51.502;6.918;2023-07-31T05:47:22;16.80;99.90
17215;DHT22;8723;51.502;6.918;2023-07-31T05:49:48;16.80;99.90
17215;DHT22;8723;51.502;6.918;2023-07-31T05:52:18;16.80;99.90
17215;DHT22;8723;51.502;6.918;2023-07-31T05:54:44;16.80;99.90
17215;DHT22;8723;51.502;6.918;2023-07-31T05:57:12;16.80;99.90
17215;DHT22;8723;51.502;6.918;2023-07-31T05:59:40;16.80;99.90
17215;DHT22;8723;51.502;6.918;2023-07-31T06:02:07;16.80;99.90
17215;DHT22;8723;51.502;6.918;2023-07-31T06:04:33;16.80;99.90
17215;DHT22;8723;51.502;6.918;2023-07-31T06:07:00;16.80;99.90
17215;DHT22;8723;51.502;6.918;2023-07-31T06:09:27;16.70;99.90
17215;DHT22;8723;51.502;6.918;2023-07-31T06:11:54;16.70;99.90
17215;DHT22;8723;51.502;6.918;2023-07-31T06:14:21;16.70;99.90
17215;DHT22;8723;51.502;6.918;2023-07-31T06:16:49;16.80;99.90
17215;DHT22;8723;51.502;6.918;2023-07-31T06:19:16;16.80;99.90
17215;DHT22;8723;51.502;6.918;2023-07-31T06:21:42;16.80;99.90
17215;DHT22;8723;51.502;6.918;2023-07-31T06:24:09;16.80;99.90
17215;DHT22;8723;51.502;6.918;2023-07-31T06:26:37;16.80;99.90
17215;DHT22;8723;51.502;6.918;2023-07-31T06:29:04;16.80;99.90
17215;DHT22;8723;51.502;6.918;2023-07-31T06:31:31;16.80;99.90
17215;DHT22;8723;51.502;6.918;2023-07-31T06:33:59;16.80;99.90
17215;DHT22;8723;51.502;6.918;2023-07-31T06:36:26;16.80;99.90
17215;DHT22;8723;51.502;6.918;2023-07-31T06:38:52;16.80;99.90
17215;DHT22;8723;51.502;6.918;2023-07-31T06:41:19;16.80;99.90
17215;DHT22;8723;51.502;6.918;2023-07-31T06:43:46;16.80;99.90
17215;DHT22;8723;51.502;6.918;2023-07-31T06:46:13;16.80;99.90
17215;DHT22;8723;51.502;6.918;2023-07-31T06:48:40;16.80;99.90
17215;DHT22;8723;51.502;6.918;2023-07-31T06:51:08;16.80;99.90
17215;DHT22;8723;51.502;6.918;2023-07-31T06:53:35;16.80;99.90
17215;DHT22;8723;51.502;6.918;2023-07-31T06:56:01;16.80;99.90
17215;DHT22;8723;51.502;6.918;2023-07-31T06:58:28;16.80;99.90
17215;DHT22;8723;51.502;6.918;2023-07-31T07:00:55;16.80;99.90
17215;DHT22;8723;51.502;6.918;2023-07-31T07:03:22;16.80;99.90
17215;DHT22;8723;51.502;6.918;2023-07-31T07:05:48;16.90;99.90
17215;DHT22;8723;51.502;6.918;2023-07-31T07:08:17;16.80;99.90
17215;DHT22;8723;51.502;6.918;2023-07-31T07:10:43;16.80;99.90
17215;DHT22;8723;51.502;6.918;2023-07-31T07:13:10;16.80;99.90
17215;DHT22;8723;51.502;6.918;2023-07-31T07:15:38;16.80;99.90
17215;DHT22;8723;51.502;6.918;2023-07-31T07:18:04;16.80;99.90
17215;DHT22;8723;51.502;6.918;2023-07-31T07:20:31;16.80;99.90
17215;DHT22;8723;51.502;6.918;2023-07-31T07:22:58;16.80;99.90
17215;DHT22;8723;51.502;6.918;2023-07-31T07:25:26;16.80;99.90
17215;DHT22;8723;51.502;6.918;2023-07-31T07:27:53;16.80;99.90
17215;DHT22;8723;51.502;6.918;2023-07-31T07:30:20;16.80;99.90
17215;DHT22;8723;51.502;6.918;2023-07-31T07:32:47;16.80;99.90
17215;DHT22;8723;51.502;6.918;2023-07-31T07:35:14;16.80;99.90
17215;DHT22;8723;51.502;6.918;2023-07-31T07:37:40;16.80;99.90
17215;DHT22;8723;51.502;6.918;2023-07-31T07:40:08;16.80;99.90
17215;DHT22;8723;51.502;6.918;2023-07-31T07:42:36;16.80;99.90
17215;DHT22;8723;51.502;6.918;2023-07-31T07:45:04;16.80;99.90
17215;DHT22;8723;51.502;6.918;2023-07-31T07:47:31;16.70;99.90
17215;DHT22;8723;51.502;6.918;2023-07-31T07:49:58;16.70;99.90
17215;DHT22;8723;51.502;6.918;2023-07-31T07:52:25;16.70;99.90
17215;DHT22;8723;51.502;6.918;2023-07-31T07:54:51;16.70;99.90
17215;DHT22;8723;51.502;6.918;2023-07-31T07:57:18;16.70;99.90
17215;DHT22;8723;51.502;6.918;2023-07-31T07:59:46;16.70;99.90
17215;DHT22;8723;51.502;6.918;2023-07-31T08:02:13;16.70;99.90
17215;DHT22;8723;51.502;6.918;2023-07-31T08:04:40;16.70;99.90
17215;DHT22;8723;51.502;6.918;2023-07-31T08:07:07;16.70;99.90
17215;DHT22;8723;51.502;6.918;2023-07-31T08:09:33;16.70;99.90
17215;DHT22;8723;51.502;6.918;2023-07-31T08:12:00;16.70;99.90
17215;DHT22;8723;51.502;6.918;2023-07-31T08:14:29;16.70;99.90
17215;DHT22;8723;51.502;6.918;2023-07-31T08:16:57;16.70;99.90
17215;DHT22;8723;51.502;6.918;2023-07-31T08:19:23;16.70;99.90
17215;DHT22;8723;51.502;6.918;2023-07-31T08:21:50;16.70;99.90
17215;DHT22;8723;51.502;6.918;2023-07-31T08:24:17;16.70;99.90
17215;DHT22;8723;51.502;6.918;2023-07-31T08:26:44;16.70;99.90
17215;DHT22;8723;51.502;6.918;2023-07-31T08:29:11;16.70;99.90
17215;DHT22;8723;51.502;6.918;2023-07-31T08:31:37;16.60;99.90
17215;DHT22;8723;51.502;6.918;2023-07-31T08:34:05;16.60;99.90
17215;DHT22;8723;51.502;6.918;2023-07-31T08:36:32;16.60;99.90
17215;DHT22;8723;51.502;6.918;2023-07-31T08:38:59;16.60;99.90
17215;DHT22;8723;51.502;6.918;2023-07-31T08:41:27;16.60;99.90
17215;DHT22;8723;51.502;6.918;2023-07-31T08:43:55;16.60;99.90
17215;DHT22;8723;51.502;6.918;2023-07-31T08:46:22;16.70;99.90
17215;DHT22;8723;51.502;6.918;2023-07-31T08:48:51;16.60;99.90
17215;DHT22;8723;51.502;6.918;2023-07-31T08:51:20;16.70;99.90
17215;DHT22;8723;51.502;6.918;2023-07-31T08:53:47;16.70;99.90
17215;DHT22;8723;51.502;6.918;2023-07-31T08:56:14;16.70;99.90
17215;DHT22;8723;51.502;6.918;2023-07-31T08:58:43;16.70;99.90
17215;DHT22;8723;51.502;6.918;2023-07-31T09:01:10;16.70;99.90
17215;DHT22;8723;51.502;6.918;2023-07-31T09:03:39;16.70;99.90
17215;DHT22;8723;51.502;6.918;2023-07-31T09:06:07;16.70;99.90
17215;DHT22;8723;51.502;6.918;2023-07-31T09:08:35;16.70;99.90
17215;DHT22;8723;51.502;6.918;2023-07-31T09:11:04;16.70;99.90
17215;DHT22;8723;51.502;6.918;2023-07-31T09:13:31;16.70;99.90
17215;DHT22;8723;51.502;6.918;2023-07-31T09:15:58;16.70;99.90
17215;DHT22;8723;51.502;6.918;2023-07-31T09:18:25;16.70;99.90
17215;DHT22;8723;51.502;6.918;2023-07-31T09:21:02;16.60;99.90
17215;DHT22;8723;51.502;6.918;2023-07-31T09:23:41;16.60;99.90
17215;DHT22;8723;51.502;6.918;2023-07-31T09:26:08;16.60;99.90
17215;DHT22;8723;51.502;6.918;2023-07-31T09:28:36;16.70;99.90
17215;DHT22;8723;51.502;6.918;2023-07-31T09:31:03;16.70;99.90
17215;DHT22;8723;51.502;6.918;2023-07-31T09:33:30;16.70;99.90
17215;DHT22;8723;51.502;6.918;2023-07-31T09:35:58;16.70;99.90
17215;DHT22;8723;51.502;6.918;2023-07-31T09:38:25;16.80;99.90
17215;DHT22;8723;51.502;6.918;2023-07-31T09:40:54;16.80;99.90
17215;DHT22;8723;51.502;6.918;2023-07-31T09:43:21;16.90;99.90
17215;DHT22;8723;51.502;6.918;2023-07-31T09:45:55;16.90;99.90
17215;DHT22;8723;51.502;6.918;2023-07-31T09:48:23;16.90;99.90
17215;DHT22;8723;51.502;6.918;2023-07-31T09:50:53;16.90;99.90
17215;DHT22;8723;51.502;6.918;2023-07-31T09:53:28;16.90;99.90
17215;DHT22;8723;51.502;6.918;2023-07-31T09:55:58;16.90;99.90
17215;DHT22;8723;51.502;6.918;2023-07-31T09:58:27;17.00;99.90
17215;DHT22;8723;51.502;6.918;2023-07-31T10:00:56;17.00;99.90
17215;DHT22;8723;51.502;6.918;2023-07-31T10:03:24;17.00;99.90
17215;DHT22;8723;51.502;6.918;2023-07-31T10:05:53;17.00;99.90
17215;DHT22;8723;51.502;6.918;2023-07-31T10:08:27;17.00;99.90
17215;DHT22;8723;51.502;6.918;2023-07-31T10:10:58;17.00;99.90
17215;DHT22;8723;51.502;6.918;2023-07-31T10:13:28;17.00;99.90
17215;DHT22;8723;51.502;6.918;2023-07-31T10:15:58;17.00;99.90
17215;DHT22;8723;51.502;6.918;2023-07-31T10:18:26;17.00;99.90
17215;DHT22;8723;51.502;6.918;2023-07-31T10:20:54;16.90;99.90
17215;DHT22;8723;51.502;6.918;2023-07-31T10:23:22;17.00;99.90
17215;DHT22;8723;51.502;6.918;2023-07-31T10:25:50;17.00;99.90
17215;DHT22;8723;51.502;6.918;2023-07-31T10:28:20;17.00;99.90
17215;DHT22;8723;51.502;6.918;2023-07-31T10:30:48;17.00;99.90
17215;DHT22;8723;51.502;6.918;2023-07-31T10:33:16;17.00;99.90
17215;DHT22;8723;51.502;6.918;2023-07-31T10:35:45;17.00;99.90
17215;DHT22;8723;51.502;6.918;2023-07-31T10:38:13;17.00;99.90
17215;DHT22;8723;51.502;6.918;2023-07-31T10:40:40;17.10;99.90
17215;DHT22;8723;51.502;6.918;2023-07-31T10:43:07;17.10;99.90
17215;DHT22;8723;51.502;6.918;2023-07-31T10:45:38;17.10;99.90
17215;DHT22;8723;51.502;6.918;2023-07-31T10:48:07;17.20;99.90
17215;DHT22;8723;51.502;6.918;2023-07-31T10:50:38;17.20;99.90
17215;DHT22;8723;51.502;6.918;2023-07-31T10:53:05;17.30;99.90
17215;DHT22;8723;51.502;6.918;2023-07-31T10:55:38;17.30;99.90
17215;DHT22;8723;51.502;6.918;2023-07-31T10:58:06;17.30;99.90
17215;DHT22;8723;51.502;6.918;2023-07-31T11:00:34;17.50;99.90
17215;DHT22;8723;51.502;6.918;2023-07-31T11:03:06;17.40;99.90
17215;DHT22;8723;51.502;6.918;2023-07-31T11:05:45;17.50;99.90
17215;DHT22;8723;51.502;6.918;2023-07-31T11:08:13;17.50;99.90
17215;DHT22;8723;51.502;6.918;2023-07-31T11:10:40;17.50;99.90
17215;DHT22;8723;51.502;6.918;2023-07-31T11:13:07;17.50;99.90
17215;DHT22;8723;51.502;6.918;2023-07-31T11:15:33;17.60;99.90
17215;DHT22;8723;51.502;6.918;2023-07-31T11:18:01;17.60;99.90
17215;DHT22;8723;51.502;6.918;2023-07-31T11:20:31;17.60;99.90
17215;DHT22;8723;51.502;6.918;2023-07-31T11:22:59;17.70;99.90
17215;DHT22;8723;51.502;6.918;2023-07-31T11:25:28;17.70;99.90
17215;DHT22;8723;51.502;6.918;2023-07-31T11:27:55;17.70;99.90
17215;DHT22;8723;51.502;6.918;2023-07-31T11:30:21;17.70;99.90
17215;DHT22;8723;51.502;6.918;2023-07-31T11:32:49;17.80;99.90
17215;DHT22;8723;51.502;6.918;2023-07-31T11:35:15;17.80;99.90
17215;DHT22;8723;51.502;6.918;2023-07-31T11:37:44;17.90;99.90
17215;DHT22;8723;51.502;6.918;2023-07-31T11:40:11;17.80;99.90
17215;DHT22;8723;51.502;6.918;2023-07-31T11:42:38;17.80;99.90
17215;DHT22;8723;51.502;6.918;2023-07-31T11:45:05;17.90;99.90
17215;DHT22;8723;51.502;6.918;2023-07-31T11:47:33;18.00;99.90
17215;DHT22;8723;51.502;6.918;2023-07-31T11:50:01;18.00;99.90
17215;DHT22;8723;51.502;6.918;2023-07-31T11:52:30;17.90;99.90
17215;DHT22;8723;51.502;6.918;2023-07-31T11:54:59;17.90;99.90
17215;DHT22;8723;51.502;6.918;2023-07-31T11:57:28;17.80;99.90
17215;DHT22;8723;51.502;6.918;2023-07-31T11:59:56;17.90;99.90
17215;DHT22;8723;51.502;6.918;2023-07-31T12:02:23;17.90;99.90
17215;DHT22;8723;51.502;6.918;2023-07-31T12:04:50;18.00;99.90
17215;DHT22;8723;51.502;6.918;2023-07-31T12:07:17;18.00;99.90
17215;DHT22;8723;51.502;6.918;2023-07-31T12:09:52;18.00;99.90
17215;DHT22;8723;51.502;6.918;2023-07-31T12:12:21;18.00;99.90
17215;DHT22;8723;51.502;6.918;2023-07-31T12:14:49;18.10;99.90
17215;DHT22;8723;51.502;6.918;2023-07-31T12:17:17;18.00;99.90
17215;DHT22;8723;51.502;6.918;2023-07-31T12:19:45;18.10;99.90
17215;DHT22;8723;51.502;6.918;2023-07-31T12:22:12;18.10;99.90
17215;DHT22;8723;51.502;6.918;2023-07-31T12:24:40;18.00;99.90
17215;DHT22;8723;51.502;6.918;2023-07-31T12:27:11;18.00;99.90
17215;DHT22;8723;51.502;6.918;2023-07-31T12:29:41;18.10;99.90
17215;DHT22;8723;51.502;6.918;2023-07-31T12:32:23;18.10;99.90
17215;DHT22;8723;51.502;6.918;2023-07-31T12:34:54;18.10;99.90
17215;DHT22;8723;51.502;6.918;2023-07-31T12:37:21;18.10;99.90
17215;DHT22;8723;51.502;6.918;2023-07-31T12:39:48;18.10;99.90
17215;DHT22;8723;51.502;6.918;2023-07-31T12:42:17;18.10;99.90
17215;DHT22;8723;51.502;6.918;2023-07-31T12:44:45;18.20;99.90
17215;DHT22;8723;51.502;6.918;2023-07-31T12:47:12;18.20;99.90
17215;DHT22;8723;51.502;6.918;2023-07-31T12:49:40;18.40;99.90
17215;DHT22;8723;51.502;6.918;2023-07-31T12:52:07;18.40;99.90
17215;DHT22;8723;51.502;6.918;2023-07-31T12:54:34;18.40;99.90
17215;DHT22;8723;51.502;6.918;2023-07-31T12:57:01;18.40;99.90
17215;DHT22;8723;51.502;6.918;2023-07-31T12:59:28;18.40;99.90
17215;DHT22;8723;51.502;6.918;2023-07-31T13:01:56;18.40;99.90
17215;DHT22;8723;51.502;6.918;2023-07-31T13:04:23;18.40;99.90
17215;DHT22;8723;51.502;6.918;2023-07-31T13:06:50;18.40;99.90
17215;DHT22;8723;51.502;6.918;2023-07-31T13:09:16;18.30;99.90
17215;DHT22;8723;51.502;6.918;2023-07-31T13:11:43;18.30;99.90
17215;DHT22;8723;51.502;6.918;2023-07-31T13:14:10;18.30;99.90
17215;DHT22;8723;51.502;6.918;2023-07-31T13:16:37;18.30;99.90
17215;DHT22;8723;51.502;6.918;2023-07-31T13:19:06;18.40;99.90
17215;DHT22;8723;51.502;6.918;2023-07-31T13:21:32;18.40;99.90
17215;DHT22;8723;51.502;6.918;2023-07-31T13:26:29;18.50;99.90
17215;DHT22;8723;51.502;6.918;2023-07-31T13:28:56;18.60;99.90
17215;DHT22;8723;51.502;6.918;2023-07-31T13:31:23;18.50;99.90
17215;DHT22;8723;51.502;6.918;2023-07-31T13:33:50;18.50;99.90
17215;DHT22;8723;51.502;6.918;2023-07-31T13:36:18;18.50;99.90
17215;DHT22;8723;51.502;6.918;2023-07-31T13:38:45;18.50;99.90
17215;DHT22;8723;51.502;6.918;2023-07-31T13:41:11;18.60;99.90
17215;DHT22;8723;51.502;6.918;2023-07-31T13:43:38;18.50;99.90
17215;DHT22;8723;51.502;6.918;2023-07-31T13:46:06;18.60;99.90
17215;DHT22;8723;51.502;6.918;2023-07-31T13:48:36;18.60;99.90
17215;DHT22;8723;51.502;6.918;2023-07-31T13:51:03;18.50;99.90
17215;DHT22;8723;51.502;6.918;2023-07-31T13:53:31;18.50;99.90
17215;DHT22;8723;51.502;6.918;2023-07-31T13:55:58;18.50;99.90
17215;DHT22;8723;51.502;6.918;2023-07-31T13:58:25;18.50;99.90
17215;DHT22;8723;51.502;6.918;2023-07-31T14:00:51;18.40;99.90
17215;DHT22;8723;51.502;6.918;2023-07-31T14:03:18;18.50;99.90
17215;DHT22;8723;51.502;6.918;2023-07-31T14:05:45;18.50;99.90
17215;DHT22;8723;51.502;6.918;2023-07-31T14:08:12;18.60;99.90
17215;DHT22;8723;51.502;6.918;2023-07-31T14:10:40;18.70;99.90
17215;DHT22;8723;51.502;6.918;2023-07-31T14:13:07;18.90;99.90
17215;DHT22;8723;51.502;6.918;2023-07-31T14:15:33;19.00;99.90
17215;DHT22;8723;51.502;6.918;2023-07-31T14:18:01;19.10;99.90
17215;DHT22;8723;51.502;6.918;2023-07-31T14:20:28;19.10;99.90
17215;DHT22;8723;51.502;6.918;2023-07-31T14:22:55;19.30;99.90
17215;DHT22;8723;51.502;6.918;2023-07-31T14:25:22;19.40;99.90
17215;DHT22;8723;51.502;6.918;2023-07-31T14:27:50;19.40;99.90
17215;DHT22;8723;51.502;6.918;2023-07-31T14:30:17;19.40;99.90
17215;DHT22;8723;51.502;6.918;2023-07-31T14:32:43;19.40;99.90
17215;DHT22;8723;51.502;6.918;2023-07-31T14:35:10;19.30;99.90
17215;DHT22;8723;51.502;6.918;2023-07-31T14:37:38;19.20;99.90
17215;DHT22;8723;51.502;6.918;2023-07-31T14:40:06;19.20;99.90
17215;DHT22;8723;51.502;6.918;2023-07-31T14:42:33;19.20;99.90
17215;DHT22;8723;51.502;6.918;2023-07-31T14:45:01;19.20;99.90
17215;DHT22;8723;51.502;6.918;2023-07-31T14:47:28;19.10;99.90
17215;DHT22;8723;51.502;6.918;2023-07-31T14:49:56;19.00;99.90
17215;DHT22;8723;51.502;6.918;2023-07-31T14:52:23;19.00;99.90
17215;DHT22;8723;51.502;6.918;2023-07-31T14:54:50;18.90;99.90
17215;DHT22;8723;51.502;6.918;2023-07-31T14:57:16;18.90;99.90
17215;DHT22;8723;51.502;6.918;2023-07-31T14:59:43;18.80;99.90
17215;DHT22;8723;51.502;6.918;2023-07-31T15:02:12;18.80;99.90
17215;DHT22;8723;51.502;6.918;2023-07-31T15:04:39;18.80;99.90
17215;DHT22;8723;51.502;6.918;2023-07-31T15:07:06;18.70;99.90
17215;DHT22;8723;51.502;6.918;2023-07-31T15:09:32;18.70;99.90
17215;DHT22;8723;51.502;6.918;2023-07-31T15:11:59;18.70;99.90
17215;DHT22;8723;51.502;6.918;2023-07-31T15:14:26;18.70;99.90
17215;DHT22;8723;51.502;6.918;2023-07-31T15:16:56;18.60;99.90
17215;DHT22;8723;51.502;6.918;2023-07-31T15:19:24;18.50;99.90
17215;DHT22;8723;51.502;6.918;2023-07-31T15:21:51;18.60;99.90
17215;DHT22;8723;51.502;6.918;2023-07-31T15:24:18;18.50;99.90
17215;DHT22;8723;51.502;6.918;2023-07-31T15:26:45;18.50;99.90
17215;DHT22;8723;51.502;6.918;2023-07-31T15:29:12;18.40;99.90
17215;DHT22;8723;51.502;6.918;2023-07-31T15:31:45;18.40;99.90
17215;DHT22;8723;51.502;6.918;2023-07-31T15:34:12;18.40;99.90
17215;DHT22;8723;51.502;6.918;2023-07-31T15:36:40;18.40;99.90
17215;DHT22;8723;51.502;6.918;2023-07-31T15:39:07;18.40;99.90
17215;DHT22;8723;51.502;6.918;2023-07-31T15:41:34;18.40;99.90
17215;DHT22;8723;51.502;6.918;2023-07-31T15:44:01;18.40;99.90
17215;DHT22;8723;51.502;6.918;2023-07-31T15:46:28;18.50;99.90
17215;DHT22;8723;51.502;6.918;2023-07-31T15:48:55;18.50;99.90
17215;DHT22;8723;51.502;6.918;2023-07-31T15:51:22;18.50;99.90
17215;DHT22;8723;51.502;6.918;2023-07-31T15:53:50;18.50;99.90
17215;DHT22;8723;51.502;6.918;2023-07-31T15:56:17;18.50;99.90
17215;DHT22;8723;51.502;6.918;2023-07-31T15:58:44;18.50;99.90
17215;DHT22;8723;51.502;6.918;2023-07-31T16:01:11;18.60;99.90
17215;DHT22;8723;51.502;6.918;2023-07-31T16:03:39;18.50;99.90